createdAt,value
2019-02-17T00:01:33.557Z,19.03
2019-02-17T00:04:18.498Z,21.03
2019-02-17T00:07:03.306Z,18.83
2019-02-17T00:09:48.005Z,20.33
2019-02-17T00:12:32.766Z,19.07
2019-02-17T00:15:17.862Z,19.87
2019-02-17T00:18:02.754Z,18.53
2019-02-17T00:20:47.931Z,19.27
2019-02-17T00:23:32.964Z,16.80
2019-02-17T00:26:17.673Z,18.37
2019-02-17T00:29:02.326Z,18.10
2019-02-17T00:31:46.697Z,17.53
2019-02-17T00:34:31.892Z,17.37
2019-02-17T00:37:16.793Z,17.60
2019-02-17T00:40:01.849Z,20.57
2019-02-17T00:42:46.622Z,18.90
2019-02-17T00:45:31.614Z,18.73
2019-02-17T00:48:16.334Z,16.13
2019-02-17T00:51:01.008Z,17.47
2019-02-17T00:53:45.663Z,17.37
2019-02-17T00:56:30.558Z,19.50
2019-02-17T00:59:15.126Z,17.77
2019-02-17T01:01:59.776Z,17.20
2019-02-17T01:04:44.711Z,21.47
2019-02-17T01:07:29.346Z,18.20
2019-02-17T01:10:13.922Z,18.97
2019-02-17T01:12:58.954Z,19.13
2019-02-17T01:15:44.523Z,17.40
2019-02-17T01:18:32.038Z,18.13
2019-02-17T01:21:16.877Z,17.10
2019-02-17T01:24:02.287Z,19.17
2019-02-17T01:26:46.875Z,18.70
2019-02-17T01:29:31.552Z,17.83
2019-02-17T01:32:15.905Z,19.40
2019-02-17T01:35:00.693Z,20.33
2019-02-17T01:37:45.549Z,17.57
2019-02-17T01:40:30.728Z,20.93
2019-02-17T01:43:15.669Z,19.53
2019-02-17T01:46:00.397Z,20.23
2019-02-17T01:48:45.555Z,17.67
2019-02-17T01:51:30.150Z,16.53
2019-02-17T01:54:14.810Z,18.87
2019-02-17T01:56:59.770Z,18.17
2019-02-17T01:59:44.307Z,18.40
2019-02-17T02:02:28.782Z,17.27
2019-02-17T02:05:13.661Z,17.30
2019-02-17T02:07:58.360Z,16.93
2019-02-17T02:10:43.163Z,19.17
2019-02-17T02:13:27.770Z,17.40
2019-02-17T02:16:12.495Z,17.17
2019-02-17T02:18:57.109Z,17.07
2019-02-17T02:21:41.660Z,14.90
2019-02-17T02:24:26.162Z,21.10
2019-02-17T02:27:10.769Z,18.03
2019-02-17T02:29:55.221Z,17.23
2019-02-17T02:32:39.960Z,15.63
2019-02-17T02:35:27.797Z,18.63
2019-02-17T02:38:13.610Z,16.10
2019-02-17T02:40:58.174Z,15.60
2019-02-17T02:43:42.878Z,17.97
2019-02-17T02:46:27.963Z,17.27
2019-02-17T02:49:14.720Z,16.13
2019-02-17T02:51:59.564Z,17.90
2019-02-17T02:54:44.350Z,16.93
2019-02-17T02:57:29.224Z,16.93
2019-02-17T03:00:13.997Z,17.27
2019-02-17T03:02:58.821Z,18.77
2019-02-17T03:05:45.366Z,17.53
2019-02-17T03:08:29.916Z,17.33
2019-02-17T03:11:14.471Z,15.77
2019-02-17T03:13:59.182Z,14.90
2019-02-17T03:16:44.118Z,16.10
2019-02-17T03:19:28.591Z,17.23
2019-02-17T03:22:13.237Z,16.67
2019-02-17T03:24:58.008Z,16.73
2019-02-17T03:27:42.941Z,17.17
2019-02-17T03:30:27.502Z,15.93
2019-02-17T03:33:12.053Z,18.70
2019-02-17T03:35:56.512Z,14.90
2019-02-17T03:38:41.209Z,15.60
2019-02-17T03:41:25.713Z,13.93
2019-02-17T03:44:10.431Z,15.93
2019-02-17T03:46:54.991Z,16.73
2019-02-17T03:49:39.772Z,13.30
2019-02-17T03:52:24.537Z,11.63
2019-02-17T03:55:09.481Z,16.33
2019-02-17T03:57:54.423Z,14.73
2019-02-17T04:00:39.351Z,12.83
2019-02-17T04:03:24.245Z,16.87
2019-02-17T04:06:09.146Z,15.70
2019-02-17T04:08:54.783Z,17.50
2019-02-17T04:11:39.531Z,17.30
2019-02-17T04:14:24.301Z,17.47
2019-02-17T04:17:13.161Z,16.10
2019-02-17T04:19:59.854Z,16.40
2019-02-17T04:22:44.595Z,13.43
2019-02-17T04:25:29.294Z,13.33
2019-02-17T04:28:13.847Z,18.10
2019-02-17T04:30:58.525Z,13.37
2019-02-17T04:33:42.982Z,14.27
2019-02-17T04:36:27.460Z,15.20
2019-02-17T04:39:12.204Z,14.77
2019-02-17T04:41:56.692Z,16.83
2019-02-17T04:44:41.271Z,14.60
2019-02-17T04:47:25.641Z,14.17
2019-02-17T04:50:10.299Z,14.33
2019-02-17T04:52:55.292Z,13.77
2019-02-17T04:55:40.201Z,13.43
2019-02-17T04:58:27.208Z,14.03
2019-02-17T05:01:11.884Z,16.33
2019-02-17T05:03:56.767Z,15.40
2019-02-17T05:06:41.310Z,17.17
2019-02-17T05:09:25.761Z,16.77
2019-02-17T05:12:10.560Z,15.03
2019-02-17T05:14:55.401Z,16.50
2019-02-17T05:17:40.418Z,16.57
2019-02-17T05:20:25.176Z,17.30
2019-02-17T05:23:10.072Z,15.53
2019-02-17T05:25:55.498Z,14.47
2019-02-17T05:28:40.275Z,15.57
2019-02-17T05:31:24.921Z,16.90
2019-02-17T05:34:09.436Z,16.50
2019-02-17T05:36:54.001Z,17.60
2019-02-17T05:39:38.398Z,16.50
2019-02-17T05:42:23.074Z,16.33
2019-02-17T05:45:07.817Z,16.97
2019-02-17T05:47:52.761Z,16.13
2019-02-17T05:50:37.201Z,15.67
2019-02-17T05:53:21.918Z,16.10
2019-02-17T05:56:09.578Z,17.80
2019-02-17T05:58:54.018Z,18.77
2019-02-17T06:01:38.620Z,17.43
2019-02-17T06:04:23.568Z,17.80
2019-02-17T06:07:08.232Z,20.77
2019-02-17T06:09:52.792Z,18.03
2019-02-17T06:12:37.393Z,19.40
2019-02-17T06:15:22.003Z,19.53
2019-02-17T06:18:07.563Z,19.73
2019-02-17T06:20:52.562Z,22.17
2019-02-17T06:23:37.106Z,20.37
2019-02-17T06:26:21.659Z,21.47
2019-02-17T06:29:06.134Z,19.60
2019-02-17T06:31:50.618Z,19.60
2019-02-17T06:34:35.251Z,23.23
2019-02-17T06:37:20.211Z,22.47
2019-02-17T06:40:06.223Z,21.37
2019-02-17T06:42:51.231Z,21.00
2019-02-17T06:45:35.743Z,19.73
2019-02-17T06:48:20.674Z,20.07
2019-02-17T06:51:05.262Z,20.40
2019-02-17T06:53:49.928Z,18.87
2019-02-17T06:56:48.424Z,21.00
2019-02-17T06:59:35.754Z,19.60
2019-02-17T07:02:20.706Z,18.33
2019-02-17T07:05:10.493Z,20.47
2019-02-17T07:07:55.479Z,21.40
2019-02-17T07:10:40.600Z,22.60
2019-02-17T07:13:24.967Z,23.93
2019-02-17T07:16:09.769Z,26.53
2019-02-17T07:18:55.313Z,25.57
2019-02-17T07:21:39.704Z,25.47
2019-02-17T07:24:24.223Z,23.80
2019-02-17T07:27:11.052Z,26.50
2019-02-17T07:29:56.119Z,25.83
2019-02-17T07:32:40.738Z,28.13
2019-02-17T07:35:25.400Z,25.13
2019-02-17T07:38:10.292Z,23.03
2019-02-17T07:40:55.902Z,23.37
2019-02-17T07:43:42.900Z,27.53
2019-02-17T07:46:27.732Z,28.13
2019-02-17T07:49:12.418Z,23.43
2019-02-17T07:51:56.852Z,23.93
2019-02-17T07:54:41.449Z,24.70
2019-02-17T07:57:29.647Z,25.10
2019-02-17T08:00:14.142Z,26.33
2019-02-17T08:02:58.557Z,23.67
2019-02-17T08:05:43.165Z,26.03
2019-02-17T08:08:27.709Z,25.27
2019-02-17T08:11:12.486Z,23.47
2019-02-17T08:13:57.438Z,22.97
2019-02-17T08:16:41.798Z,21.80
2019-02-17T08:19:26.543Z,23.80
2019-02-17T08:22:11.483Z,21.47
2019-02-17T08:24:56.013Z,23.23
2019-02-17T08:27:45.025Z,23.93
2019-02-17T08:30:29.780Z,22.63
2019-02-17T08:33:14.623Z,20.37
2019-02-17T08:35:59.579Z,21.77
2019-02-17T08:38:44.612Z,20.80
2019-02-17T08:41:29.054Z,24.40
2019-02-17T08:44:13.645Z,23.60
2019-02-17T08:46:58.176Z,27.20
2019-02-17T08:49:42.756Z,23.67
2019-02-17T08:52:27.838Z,24.37
2019-02-17T08:55:12.899Z,25.03
2019-02-17T08:57:57.673Z,24.30
2019-02-17T09:00:42.637Z,21.70
2019-02-17T09:03:27.609Z,20.43
2019-02-17T09:06:12.202Z,25.27
2019-02-17T09:08:56.889Z,24.37
2019-02-17T09:11:41.366Z,23.47
2019-02-17T09:14:26.122Z,23.47
2019-02-17T09:17:10.952Z,23.63
2019-02-17T09:19:55.969Z,23.37
2019-02-17T09:22:40.408Z,22.80
2019-02-17T09:25:24.906Z,21.63
2019-02-17T09:28:09.582Z,24.47
2019-02-17T09:30:54.214Z,22.47
2019-02-17T09:33:39.268Z,23.27
2019-02-17T09:36:23.898Z,20.20
2019-02-17T09:39:08.776Z,22.13
2019-02-17T09:41:53.812Z,22.60
2019-02-17T09:44:38.693Z,23.00
2019-02-17T09:47:25.547Z,21.70
2019-02-17T09:50:11.629Z,20.30
2019-02-17T09:52:56.521Z,22.57
2019-02-17T09:55:41.096Z,23.43
2019-02-17T09:58:26.143Z,21.87
2019-02-17T10:01:10.737Z,22.03
2019-02-17T10:03:55.636Z,19.93
2019-02-17T10:06:40.401Z,22.00
2019-02-17T10:09:24.978Z,19.17
2019-02-17T10:12:10.178Z,22.50
2019-02-17T10:14:55.139Z,22.60
2019-02-17T10:17:40.147Z,22.10
2019-02-17T10:20:24.990Z,20.93
2019-02-17T10:23:10.242Z,23.20
2019-02-17T10:25:56.547Z,25.83
2019-02-17T10:28:42.551Z,19.70
2019-02-17T10:31:27.745Z,19.03
2019-02-17T10:34:12.792Z,20.07
2019-02-17T10:36:57.762Z,19.80
2019-02-17T10:39:42.596Z,23.37
2019-02-17T10:42:27.317Z,20.20
2019-02-17T10:45:13.302Z,20.13
2019-02-17T10:47:57.865Z,21.77
2019-02-17T10:50:42.969Z,18.80
2019-02-17T10:53:27.443Z,19.83
2019-02-17T10:56:11.947Z,18.37
2019-02-17T10:59:00.072Z,22.07
2019-02-17T11:01:44.796Z,18.95
2019-02-17T11:04:29.631Z,20.07
2019-02-17T11:07:14.838Z,18.27
2019-02-17T11:09:59.871Z,18.92
2019-02-17T11:12:44.349Z,20.75
2019-02-17T11:15:29.059Z,18.15
2019-02-17T11:18:13.799Z,18.05
2019-02-17T11:20:58.499Z,17.87
2019-02-17T11:23:43.430Z,16.75
2019-02-17T11:26:28.003Z,17.20
2019-02-17T11:29:12.658Z,19.50
2019-02-17T11:31:57.530Z,17.90
2019-02-17T11:34:42.021Z,17.52
2019-02-17T11:37:27.730Z,16.15
2019-02-17T11:40:13.090Z,15.72
2019-02-17T11:42:57.737Z,18.62
2019-02-17T11:45:42.453Z,17.00
2019-02-17T11:48:26.932Z,15.95
2019-02-17T11:51:11.721Z,14.98
2019-02-17T11:53:56.582Z,17.45
2019-02-17T11:56:41.206Z,18.02
2019-02-17T11:59:25.729Z,15.53
2019-02-17T12:02:10.948Z,16.55
2019-02-17T12:04:55.879Z,15.08
2019-02-17T12:07:40.522Z,13.45
2019-02-17T12:10:25.883Z,18.07
2019-02-17T12:13:10.716Z,16.10
2019-02-17T12:15:55.635Z,15.78
2019-02-17T12:18:40.482Z,16.35
2019-02-17T12:21:27.409Z,16.37
2019-02-17T12:24:14.107Z,16.12
2019-02-17T12:27:12.431Z,13.85
2019-02-17T12:29:58.511Z,13.80
2019-02-17T12:32:43.245Z,16.20
2019-02-17T12:35:30.689Z,17.25
2019-02-17T12:38:15.363Z,14.13
2019-02-17T12:41:00.087Z,16.00
2019-02-17T12:43:45.029Z,14.53
2019-02-17T12:46:30.184Z,14.40
2019-02-17T12:49:14.697Z,13.68
2019-02-17T12:51:59.314Z,15.25
2019-02-17T12:54:44.281Z,14.00
2019-02-17T12:57:29.027Z,13.65
2019-02-17T13:00:15.835Z,16.05
2019-02-17T13:03:00.614Z,15.38
2019-02-17T13:05:45.144Z,15.23
2019-02-17T13:08:29.908Z,15.13
2019-02-17T13:11:14.881Z,13.28
2019-02-17T13:14:01.245Z,14.28
2019-02-17T13:16:46.326Z,14.47
2019-02-17T13:19:33.111Z,18.23
2019-02-17T13:22:19.115Z,15.20
2019-02-17T13:25:06.627Z,16.73
2019-02-17T13:27:51.092Z,16.65
2019-02-17T13:30:35.941Z,13.08
2019-02-17T13:33:22.763Z,18.10
2019-02-17T13:36:07.695Z,13.98
2019-02-17T13:38:52.650Z,14.65
2019-02-17T13:41:37.168Z,14.78
2019-02-17T13:44:21.721Z,14.60
2019-02-17T13:47:06.844Z,14.87
2019-02-17T13:49:51.987Z,14.70
2019-02-17T13:52:36.929Z,14.25
2019-02-17T13:55:22.133Z,13.48
2019-02-17T13:58:06.907Z,13.25
2019-02-17T14:00:51.682Z,15.08
2019-02-17T14:03:36.350Z,14.58
2019-02-17T14:06:21.259Z,14.90
2019-02-17T14:09:06.547Z,13.85
2019-02-17T14:11:51.187Z,14.68
2019-02-17T14:14:35.788Z,13.85
2019-02-17T14:17:20.422Z,15.80
2019-02-17T14:20:07.712Z,15.38
2019-02-17T14:22:52.371Z,13.45
2019-02-17T14:25:37.374Z,14.53
2019-02-17T14:28:22.266Z,14.38
2019-02-17T14:31:07.332Z,13.48
2019-02-17T14:33:58.249Z,13.60
2019-02-17T14:36:38.422Z,15.90
2019-02-17T14:39:23.262Z,16.00
2019-02-17T14:42:08.241Z,15.65
2019-02-17T14:44:52.822Z,13.88
2019-02-17T14:47:37.341Z,15.98
2019-02-17T14:50:22.470Z,14.50
2019-02-17T14:53:07.539Z,14.60
2019-02-17T14:55:52.599Z,13.43
2019-02-17T14:58:37.203Z,15.83
2019-02-17T15:01:21.766Z,17.40
2019-02-17T15:04:08.801Z,16.42
2019-02-17T15:06:53.223Z,17.67
2019-02-17T15:09:38.149Z,17.07
2019-02-17T15:12:23.015Z,16.97
2019-02-17T15:15:12.202Z,16.87
2019-02-17T15:17:57.203Z,15.35
2019-02-17T15:20:44.477Z,17.07
2019-02-17T15:23:29.117Z,15.68
2019-02-17T15:26:13.883Z,16.42
2019-02-17T15:28:58.875Z,18.70
2019-02-17T15:31:45.087Z,16.87
2019-02-17T15:34:29.947Z,17.48
2019-02-17T15:37:14.590Z,16.97
2019-02-17T15:39:59.708Z,17.07
2019-02-17T15:42:44.939Z,17.52
2019-02-17T15:45:29.968Z,15.80
2019-02-17T15:48:14.601Z,19.87
2019-02-17T15:51:06.257Z,17.98
2019-02-17T15:53:46.178Z,18.42
2019-02-17T15:56:31.384Z,16.25
2019-02-17T15:59:16.325Z,19.40
2019-02-17T16:02:02.618Z,19.70
2019-02-17T16:04:48.035Z,18.80
2019-02-17T16:07:32.767Z,20.65
2019-02-17T16:10:17.373Z,17.42
2019-02-17T16:13:02.390Z,19.12
2019-02-17T16:15:47.411Z,20.88
2019-02-17T16:18:32.253Z,23.02
2019-02-17T16:21:17.240Z,18.20
2019-02-17T16:24:02.385Z,19.62
2019-02-17T16:26:47.252Z,21.00
2019-02-17T16:29:31.924Z,18.50
2019-02-17T16:32:16.525Z,17.00
2019-02-17T16:35:01.190Z,19.57
2019-02-17T16:37:45.708Z,19.35
2019-02-17T16:40:30.836Z,19.77
2019-02-17T16:43:15.502Z,18.30
2019-02-17T16:46:00.517Z,19.13
2019-02-17T16:48:45.405Z,18.93
2019-02-17T16:51:29.892Z,18.57
2019-02-17T16:54:14.521Z,23.63
2019-02-17T16:56:58.977Z,19.13
2019-02-17T16:59:43.826Z,19.80
2019-02-17T17:02:28.806Z,21.40
2019-02-17T17:05:13.416Z,19.03
2019-02-17T17:07:58.481Z,18.70
2019-02-17T17:10:43.515Z,21.10
2019-02-17T17:13:28.682Z,21.57
2019-02-17T17:16:13.943Z,24.63
2019-02-17T17:18:59.085Z,20.67
2019-02-17T17:21:44.732Z,21.77
2019-02-17T17:24:29.508Z,21.17
2019-02-17T17:27:14.332Z,21.17
2019-02-17T17:29:58.987Z,21.20
2019-02-17T17:32:44.271Z,19.67
2019-02-17T17:35:29.345Z,20.03
2019-02-17T17:38:14.536Z,21.90
2019-02-17T17:40:59.419Z,21.93
2019-02-17T17:43:46.618Z,19.77
2019-02-17T17:46:31.604Z,21.77
2019-02-17T17:49:19.230Z,19.97
2019-02-17T17:52:03.792Z,22.17
2019-02-17T17:54:48.862Z,21.53
2019-02-17T17:57:33.979Z,22.27
2019-02-17T18:00:21.007Z,20.00
2019-02-17T18:03:05.921Z,22.13
2019-02-17T18:05:50.602Z,20.60
2019-02-17T18:08:35.707Z,21.60
2019-02-17T18:11:21.092Z,21.27
2019-02-17T18:14:06.046Z,20.43
2019-02-17T18:16:51.020Z,19.73
2019-02-17T18:19:35.761Z,24.97
2019-02-17T18:22:20.845Z,21.27
2019-02-17T18:25:07.391Z,21.37
2019-02-17T18:27:52.363Z,20.20
2019-02-17T18:30:37.472Z,20.73
2019-02-17T18:33:22.612Z,20.87
2019-02-17T18:36:07.723Z,21.43
2019-02-17T18:38:52.822Z,24.70
2019-02-17T18:41:37.737Z,22.20
2019-02-17T18:44:23.212Z,22.50
2019-02-17T18:47:08.191Z,20.63
2019-02-17T18:49:53.584Z,21.47
2019-02-17T18:52:38.692Z,19.80
2019-02-17T18:55:23.931Z,23.03
2019-02-17T18:58:09.280Z,22.60
2019-02-17T19:00:54.376Z,19.50
2019-02-17T19:03:39.357Z,20.43
2019-02-17T19:06:24.502Z,23.17
2019-02-17T19:09:09.722Z,20.27
2019-02-17T19:11:54.577Z,19.67
2019-02-17T19:14:39.368Z,22.47
2019-02-17T19:17:24.430Z,21.93
2019-02-17T19:20:24.039Z,20.77
2019-02-17T19:23:08.833Z,21.53
2019-02-17T19:25:53.991Z,21.50
2019-02-17T19:28:39.078Z,22.73
2019-02-17T19:31:24.730Z,21.47
2019-02-17T19:34:09.709Z,22.47
2019-02-17T19:36:54.891Z,23.20
2019-02-17T19:39:39.907Z,20.40
2019-02-17T19:42:24.975Z,19.43
2019-02-17T19:45:15.766Z,21.20
2019-02-17T19:48:00.768Z,23.27
2019-02-17T19:50:45.776Z,22.20
2019-02-17T19:53:30.551Z,20.17
2019-02-17T19:56:16.235Z,24.43
2019-02-17T19:59:01.270Z,22.67
2019-02-17T20:01:46.162Z,21.40
2019-02-17T20:04:32.885Z,22.67
2019-02-17T20:07:17.841Z,22.97
2019-02-17T20:10:05.575Z,24.97
2019-02-17T20:12:50.201Z,25.17
2019-02-17T20:15:35.589Z,21.13
2019-02-17T20:18:20.520Z,21.93
2019-02-17T20:21:05.449Z,21.93
2019-02-17T20:23:50.613Z,21.90
2019-02-17T20:26:35.674Z,23.27
2019-02-17T20:29:20.691Z,23.93
2019-02-17T20:32:05.992Z,20.57
2019-02-17T20:34:51.113Z,23.60
2019-02-17T20:37:36.161Z,21.30
2019-02-17T20:40:21.259Z,22.57
2019-02-17T20:43:06.260Z,22.27
2019-02-17T20:45:51.152Z,21.40
2019-02-17T20:48:36.612Z,22.23
2019-02-17T20:51:21.606Z,21.27
2019-02-17T20:54:06.675Z,22.30
2019-02-17T20:56:51.742Z,23.23
2019-02-17T20:59:36.770Z,25.17
2019-02-17T21:02:21.737Z,25.30
2019-02-17T21:05:08.241Z,24.97
2019-02-17T21:07:53.672Z,25.63
2019-02-17T21:10:38.677Z,25.97
2019-02-17T21:13:23.860Z,29.27
2019-02-17T21:16:08.837Z,29.33
2019-02-17T21:18:53.774Z,28.20
2019-02-17T21:21:38.826Z,31.40
2019-02-17T21:24:23.969Z,31.07
2019-02-17T21:27:08.839Z,29.80
2019-02-17T21:29:53.450Z,29.17
2019-02-17T21:32:38.788Z,28.67
2019-02-17T21:35:23.679Z,24.50
2019-02-17T21:38:08.641Z,29.40
2019-02-17T21:40:53.334Z,25.97
2019-02-17T21:43:38.330Z,24.83
2019-02-17T21:46:23.362Z,25.17
2019-02-17T21:49:09.571Z,23.57
2019-02-17T21:51:54.693Z,23.60
2019-02-17T21:54:39.805Z,22.17
2019-02-17T21:57:26.234Z,21.53
2019-02-17T22:00:21.574Z,20.10
2019-02-17T22:03:06.316Z,20.83
2019-02-17T22:05:51.464Z,20.37
2019-02-17T22:08:36.485Z,20.93
2019-02-17T22:11:21.663Z,23.57
2019-02-17T22:14:06.644Z,25.53
2019-02-17T22:16:51.824Z,21.23
2019-02-17T22:19:36.440Z,25.00
2019-02-17T22:22:21.301Z,24.90
2019-02-17T22:25:07.629Z,24.30
2019-02-17T22:27:52.681Z,22.10
2019-02-17T22:30:37.436Z,26.37
2019-02-17T22:33:22.494Z,22.47
2019-02-17T22:36:07.366Z,20.87
2019-02-17T22:38:52.171Z,20.00
2019-02-17T22:41:36.799Z,20.90
2019-02-17T22:44:21.775Z,19.80
2019-02-17T22:47:06.607Z,22.47
2019-02-17T22:49:51.545Z,19.57
2019-02-17T22:52:37.346Z,18.40
2019-02-17T22:55:22.317Z,16.40
2019-02-17T22:58:07.322Z,19.57
2019-02-17T23:00:57.374Z,19.20
2019-02-17T23:03:41.914Z,18.57
2019-02-17T23:06:27.200Z,17.97
2019-02-17T23:09:14.770Z,17.60
2019-02-17T23:11:59.634Z,18.00
2019-02-17T23:14:44.437Z,16.73
2019-02-17T23:17:29.406Z,18.30
2019-02-17T23:20:14.558Z,16.67
2019-02-17T23:22:59.463Z,17.57
2019-02-17T23:25:44.105Z,18.87
2019-02-17T23:28:29.230Z,17.57
2019-02-17T23:31:13.610Z,19.00
2019-02-17T23:33:58.308Z,16.70
2019-02-17T23:36:42.912Z,17.83
2019-02-17T23:39:27.520Z,16.73
2019-02-17T23:42:12.706Z,17.23
2019-02-17T23:44:57.311Z,17.97
2019-02-17T23:47:41.853Z,17.23
2019-02-17T23:50:27.192Z,18.83
2019-02-17T23:53:12.791Z,15.73
2019-02-17T23:55:57.612Z,17.37
2019-02-17T23:58:42.786Z,16.43
